Time;durP1;ratioP1;P1;durP2;ratioP2;P2;SDS_P1;SDS_P2;PMS_P1;PMS_P2;Temp;Humidity;BMP_temperature;BMP_pressure;BME280_temperature;BME280_humidity;BME280_pressure;Samples;Min_cycle;Max_cycle;Signal;HPM_P1;HPM_P2
2023/04/27 00:00:56;;;;;;;0.50;0.50;;;4.10;99.90;;;;;;5082966;28;20682;-79
2023/04/27 00:03:23;;;;;;;0.50;0.40;;;4.10;99.90;;;;;;5082286;28;20554;-79
2023/04/27 00:05:51;;;;;;;0.50;0.40;;;4.10;99.90;;;;;;5079308;28;20646;-75
2023/04/27 00:08:18;;;;;;;0.50;0.40;;;4.00;99.90;;;;;;5079335;28;20193;-77
2023/04/27 00:10:44;;;;;;;0.50;0.40;;;4.00;99.90;;;;;;5082535;28;20200;-79
2023/04/27 00:13:11;;;;;;;0.50;0.40;;;3.90;99.90;;;;;;5082463;28;20217;-78
2023/04/27 00:15:38;;;;;;;0.50;0.43;;;3.90;99.90;;;;;;5080181;28;20219;-79
2023/04/27 00:18:05;;;;;;;0.50;0.40;;;3.90;99.90;;;;;;5079272;28;20208;-79
2023/04/27 00:20:32;;;;;;;0.50;0.50;;;3.90;99.90;;;;;;5080430;28;20202;-79
2023/04/27 00:23:00;;;;;;;0.50;0.40;;;3.80;99.90;;;;;;5082680;28;20197;-79
2023/04/27 00:25:27;;;;;;;0.50;0.40;;;3.80;99.90;;;;;;5081553;28;20215;-78
2023/04/27 00:27:54;;;;;;;0.50;0.40;;;3.80;99.90;;;;;;5079065;28;20204;-78
2023/04/27 00:30:21;;;;;;;0.50;0.40;;;3.70;99.90;;;;;;5079006;28;20192;-79
2023/04/27 00:32:47;;;;;;;0.50;0.50;;;3.70;99.90;;;;;;5071436;28;20717;-78
2023/04/27 00:35:14;;;;;;;0.50;0.40;;;3.70;99.90;;;;;;5079044;28;20220;-78
2023/04/27 00:37:41;;;;;;;0.50;0.40;;;3.60;99.90;;;;;;5072968;28;20611;-79
2023/04/27 00:40:10;;;;;;;0.50;0.40;;;3.60;99.90;;;;;;5082423;28;20200;-78
2023/04/27 00:42:38;;;;;;;0.50;0.40;;;3.60;99.90;;;;;;5080354;28;20242;-78
2023/04/27 00:45:05;;;;;;;0.50;0.40;;;3.60;99.90;;;;;;5078885;28;20217;-79
2023/04/27 00:47:33;;;;;;;0.50;0.50;;;3.50;99.90;;;;;;5080171;28;20281;-78
2023/04/27 00:50:00;;;;;;;0.50;0.40;;;3.50;99.90;;;;;;5084017;28;20201;-80
2023/04/27 00:52:27;;;;;;;0.50;0.40;;;3.50;99.90;;;;;;5087179;28;20193;-80
2023/04/27 00:54:56;;;;;;;0.50;0.40;;;3.50;99.90;;;;;;5095792;28;20305;-79
2023/04/27 00:57:24;;;;;;;0.50;0.40;;;3.40;99.90;;;;;;5102586;28;20193;-77
2023/04/27 00:59:51;;;;;;;0.50;0.40;;;3.40;99.90;;;;;;5090844;28;20184;-79
2023/04/27 01:02:17;;;;;;;0.50;0.40;;;3.40;99.90;;;;;;5096356;28;20218;-79
2023/04/27 01:04:44;;;;;;;0.50;0.40;;;3.40;99.90;;;;;;5086127;28;20209;-78
2023/04/27 01:07:11;;;;;;;0.50;0.40;;;3.40;99.90;;;;;;5087115;28;20197;-78
2023/04/27 01:09:38;;;;;;;0.50;0.50;;;3.40;99.90;;;;;;5084696;28;20223;-80
2023/04/27 01:12:05;;;;;;;0.50;0.40;;;3.40;99.90;;;;;;5083620;28;20197;-80
2023/04/27 01:14:33;;;;;;;0.70;0.70;;;3.40;99.90;;;;;;5083819;28;20237;-79
2023/04/27 01:17:00;;;;;;;0.50;0.40;;;3.30;99.90;;;;;;5086642;28;20193;-79
2023/04/27 01:19:27;;;;;;;0.50;0.50;;;3.30;99.90;;;;;;5085678;28;20194;-76
2023/04/27 01:21:54;;;;;;;0.50;0.40;;;3.30;99.90;;;;;;5083286;28;20201;-79
2023/04/27 01:24:22;;;;;;;0.50;0.40;;;3.30;99.90;;;;;;5091856;28;20293;-77
2023/04/27 01:26:51;;;;;;;0.50;0.40;;;3.20;99.90;;;;;;5086497;28;20200;-80
2023/04/27 01:29:18;;;;;;;0.50;0.40;;;3.20;99.90;;;;;;5079016;28;20226;-79
2023/04/27 01:31:45;;;;;;;0.50;0.40;;;3.20;99.90;;;;;;5085396;28;20587;-79
2023/04/27 01:34:12;;;;;;;0.50;0.50;;;3.20;99.90;;;;;;5085843;28;20252;-79
2023/04/27 01:36:39;;;;;;;0.50;0.40;;;3.10;99.90;;;;;;5075717;28;20198;-79
2023/04/27 01:39:08;;;;;;;0.50;0.40;;;3.10;99.90;;;;;;5082140;28;20208;-79
2023/04/27 01:41:36;;;;;;;0.50;0.40;;;3.10;99.90;;;;;;5083508;28;20678;-79
2023/04/27 01:44:03;;;;;;;0.50;0.40;;;3.00;99.90;;;;;;5086196;28;20209;-78
2023/04/27 01:46:29;;;;;;;0.50;0.40;;;3.00;99.90;;;;;;5085806;28;20198;-79
2023/04/27 01:48:56;;;;;;;0.50;0.40;;;3.00;99.90;;;;;;5100235;28;20194;-79
2023/04/27 01:51:23;;;;;;;0.50;0.40;;;3.00;99.90;;;;;;5101803;28;20258;-80
2023/04/27 01:53:50;;;;;;;0.50;0.40;;;3.00;99.90;;;;;;5104256;28;20236;-78
2023/04/27 01:56:16;;;;;;;0.50;0.40;;;3.00;99.90;;;;;;5098524;28;20579;-79
2023/04/27 01:58:45;;;;;;;0.50;0.40;;;3.00;99.90;;;;;;5083752;28;20292;-79
2023/04/27 02:01:11;;;;;;;0.50;0.40;;;2.90;99.90;;;;;;5080613;28;20280;-79
2023/04/27 02:03:38;;;;;;;0.50;0.40;;;2.80;99.90;;;;;;5084144;28;20217;-78
2023/04/27 02:06:05;;;;;;;0.50;0.40;;;2.80;99.90;;;;;;5082523;28;20202;-80
2023/04/27 02:08:32;;;;;;;0.50;0.40;;;2.80;99.90;;;;;;5082890;28;20224;-79
2023/04/27 02:10:59;;;;;;;0.50;0.40;;;2.80;99.90;;;;;;5086068;28;20193;-79
2023/04/27 02:13:26;;;;;;;0.50;0.47;;;2.80;99.90;;;;;;5085962;28;20190;-79
2023/04/27 02:15:54;;;;;;;0.50;0.40;;;2.80;99.90;;;;;;5082049;28;20660;-77
2023/04/27 02:18:21;;;;;;;0.50;0.40;;;2.70;99.90;;;;;;5082437;28;20570;-79
2023/04/27 02:20:48;;;;;;;0.50;0.40;;;2.70;99.90;;;;;;5085413;28;20679;-80
2023/04/27 02:23:15;;;;;;;0.50;0.40;;;2.70;99.90;;;;;;5085775;28;20220;-78
2023/04/27 02:25:45;;;;;;;0.50;0.40;;;2.70;99.90;;;;;;5083408;28;20215;-79
2023/04/27 02:28:12;;;;;;;0.50;0.40;;;2.70;99.90;;;;;;5082328;28;20198;-80
2023/04/27 02:30:39;;;;;;;0.50;0.40;;;2.60;99.90;;;;;;5083808;28;20190;-79
2023/04/27 02:33:07;;;;;;;0.50;0.40;;;2.60;99.90;;;;;;5085569;28;20193;-79
2023/04/27 02:35:34;;;;;;;0.50;0.40;;;2.60;99.90;;;;;;5084268;28;20213;-78
2023/04/27 02:38:01;;;;;;;0.50;0.40;;;2.60;99.90;;;;;;5081472;28;20194;-80
2023/04/27 02:40:27;;;;;;;0.50;0.40;;;2.50;99.90;;;;;;5082074;28;20202;-79
2023/04/27 02:42:54;;;;;;;0.50;0.40;;;2.60;99.90;;;;;;5082063;28;20281;-79
2023/04/27 02:45:21;;;;;;;0.50;0.40;;;2.70;99.90;;;;;;5088936;28;20209;-79
2023/04/27 02:47:49;;;;;;;0.50;0.40;;;2.70;99.90;;;;;;5082392;28;20197;-79
2023/04/27 02:50:17;;;;;;;0.50;0.40;;;2.70;99.90;;;;;;5081173;28;20198;-78
2023/04/27 02:52:44;;;;;;;0.50;0.40;;;2.80;99.90;;;;;;5083689;28;20194;-80
2023/04/27 02:55:12;;;;;;;0.50;0.50;;;2.80;99.90;;;;;;5084626;28;20220;-80
2023/04/27 02:57:39;;;;;;;0.50;0.40;;;2.80;99.90;;;;;;5083511;28;20193;-78
2023/04/27 03:00:08;;;;;;;0.60;0.60;;;2.80;99.90;;;;;;5078114;28;20199;-79
2023/04/27 03:02:34;;;;;;;0.50;0.40;;;2.80;99.90;;;;;;5076108;28;20194;-79
2023/04/27 03:05:02;;;;;;;0.50;0.40;;;2.80;99.90;;;;;;5079527;28;20213;-79
2023/04/27 03:07:30;;;;;;;0.50;0.40;;;2.90;99.90;;;;;;5080598;28;20194;-79
2023/04/27 03:09:57;;;;;;;0.50;0.40;;;2.80;99.90;;;;;;5080702;28;20198;-78
2023/04/27 03:12:24;;;;;;;0.50;0.40;;;2.70;99.90;;;;;;5079603;28;20682;-78
2023/04/27 03:14:51;;;;;;;0.50;0.40;;;2.80;99.90;;;;;;5082541;28;23347;-78
2023/04/27 03:17:18;;;;;;;0.50;0.40;;;2.80;99.90;;;;;;5083334;28;20189;-79
2023/04/27 03:19:46;;;;;;;0.50;0.40;;;2.80;99.90;;;;;;5081376;28;20201;-78
2023/04/27 03:22:13;;;;;;;1.33;1.23;;;2.80;99.90;;;;;;5080255;28;20194;-78
2023/04/27 03:24:41;;;;;;;0.50;0.40;;;2.80;99.90;;;;;;5080834;28;20218;-79
2023/04/27 03:27:08;;;;;;;0.50;0.40;;;2.80;99.90;;;;;;5083221;28;20254;-77
2023/04/27 03:29:35;;;;;;;0.50;0.40;;;2.70;99.90;;;;;;5082418;28;20203;-79
2023/04/27 03:32:03;;;;;;;0.50;0.50;;;2.70;99.90;;;;;;5079829;28;20201;-79
2023/04/27 03:34:30;;;;;;;0.50;0.40;;;2.70;99.90;;;;;;5072302;28;20619;-77
2023/04/27 03:36:57;;;;;;;0.50;0.40;;;2.70;99.90;;;;;;5083334;28;20190;-78
2023/04/27 03:39:23;;;;;;;0.50;0.40;;;2.60;99.90;;;;;;5082719;28;20203;-79
2023/04/27 03:41:52;;;;;;;0.50;0.40;;;2.60;99.90;;;;;;5082752;28;20206;-78
2023/04/27 03:44:18;;;;;;;0.50;0.40;;;2.60;99.90;;;;;;5083038;28;20209;-77
2023/04/27 03:46:45;;;;;;;0.50;0.50;;;2.60;99.90;;;;;;5081233;28;20688;-78
2023/04/27 03:49:12;;;;;;;0.50;0.40;;;2.60;99.90;;;;;;5079430;28;20201;-78
2023/04/27 03:51:41;;;;;;;0.50;0.40;;;2.60;99.90;;;;;;5079891;28;20653;-77
2023/04/27 03:54:08;;;;;;;0.50;0.40;;;2.60;99.90;;;;;;5082660;28;20749;-79
2023/04/27 03:56:35;;;;;;;0.50;0.40;;;2.60;99.90;;;;;;5082614;28;20550;-76
2023/04/27 03:59:04;;;;;;;0.50;0.40;;;2.70;99.90;;;;;;5079190;28;20289;-77
2023/04/27 04:01:32;;;;;;;0.50;0.50;;;2.60;99.90;;;;;;5079537;28;20247;-75
2023/04/27 04:03:59;;;;;;;0.50;0.40;;;2.60;99.90;;;;;;5082849;28;20317;-78
2023/04/27 04:06:26;;;;;;;0.50;0.40;;;2.60;99.90;;;;;;5082817;28;20593;-76
2023/04/27 04:08:53;;;;;;;0.50;0.40;;;2.60;99.90;;;;;;5079848;28;20641;-77
2023/04/27 04:11:21;;;;;;;0.50;0.40;;;2.50;99.90;;;;;;5079603;28;20569;-79
2023/04/27 04:13:48;;;;;;;0.50;0.40;;;2.50;99.90;;;;;;5079774;28;20221;-79
2023/04/27 04:16:16;;;;;;;0.50;0.40;;;2.40;99.90;;;;;;5072545;28;20206;-80
2023/04/27 04:18:43;;;;;;;0.50;0.50;;;2.40;99.90;;;;;;5077946;28;20675;-78
2023/04/27 04:21:10;;;;;;;0.50;0.40;;;2.40;99.90;;;;;;5082826;28;20200;-79
2023/04/27 04:23:37;;;;;;;1.38;1.38;;;2.50;99.90;;;;;;5080671;28;20614;-78
2023/04/27 04:26:04;;;;;;;0.50;0.40;;;2.50;99.90;;;;;;5077794;28;20201;-80
2023/04/27 04:28:31;;;;;;;0.50;0.40;;;2.60;99.90;;;;;;5085889;28;20198;-79
2023/04/27 04:30:58;;;;;;;0.50;0.40;;;2.70;99.90;;;;;;5089244;28;20196;-79
2023/04/27 04:33:26;;;;;;;0.50;0.40;;;2.70;99.90;;;;;;5087143;28;20261;-79
2023/04/27 04:35:53;;;;;;;0.50;0.40;;;2.70;99.90;;;;;;5089447;28;20705;-80
2023/04/27 04:38:20;;;;;;;0.50;0.40;;;2.70;99.90;;;;;;5090669;28;20572;-79
2023/04/27 04:40:47;;;;;;;0.50;0.40;;;2.80;99.90;;;;;;5088090;28;20338;-81
2023/04/27 04:43:14;;;;;;;0.50;0.40;;;2.90;99.90;;;;;;5087467;28;20190;-81
2023/04/27 04:45:40;;;;;;;0.82;0.82;;;2.90;99.90;;;;;;5086840;28;20214;-80
2023/04/27 04:48:07;;;;;;;0.50;0.40;;;3.00;99.90;;;;;;5086815;28;20310;-81
2023/04/27 04:50:35;;;;;;;0.50;0.40;;;2.90;99.90;;;;;;5086482;28;20194;-81
2023/04/27 04:53:02;;;;;;;0.50;0.40;;;2.90;99.90;;;;;;5086749;28;20539;-81
2023/04/27 04:55:29;;;;;;;0.50;0.40;;;3.00;99.90;;;;;;5086417;28;20214;-79
2023/04/27 04:57:56;;;;;;;0.50;0.40;;;3.00;99.90;;;;;;5091149;28;20198;-79
2023/04/27 05:00:23;;;;;;;0.50;0.40;;;3.00;99.90;;;;;;5093438;28;20217;-78
2023/04/27 05:02:49;;;;;;;0.50;0.40;;;3.00;99.90;;;;;;5088496;28;20283;-79
2023/04/27 05:05:16;;;;;;;0.50;0.50;;;3.00;99.90;;;;;;5088197;28;20723;-80
2023/04/27 05:07:44;;;;;;;0.50;0.40;;;3.10;99.90;;;;;;5088043;28;20202;-80
2023/04/27 05:10:11;;;;;;;0.50;0.40;;;3.20;99.90;;;;;;5092334;28;20568;-79
2023/04/27 05:12:38;;;;;;;0.50;0.43;;;3.30;99.90;;;;;;5090000;28;20196;-81
2023/04/27 05:15:06;;;;;;;0.50;0.40;;;3.30;99.90;;;;;;5088365;28;20579;-80
2023/04/27 05:17:32;;;;;;;0.50;0.50;;;3.40;99.90;;;;;;5088588;28;20196;-79
2023/04/27 05:19:59;;;;;;;0.70;0.70;;;3.50;99.90;;;;;;5084247;28;20204;-78
2023/04/27 05:22:26;;;;;;;0.50;0.40;;;3.60;99.90;;;;;;5084009;28;20259;-80
2023/04/27 05:24:54;;;;;;;0.50;0.40;;;3.70;99.90;;;;;;5087334;28;20218;-80
2023/04/27 05:27:21;;;;;;;0.50;0.40;;;3.90;99.90;;;;;;5087311;28;20201;-80
2023/04/27 05:29:48;;;;;;;0.60;0.60;;;4.00;99.90;;;;;;5099319;28;20233;-79
2023/04/27 05:32:15;;;;;;;3.72;0.98;;;4.20;99.90;;;;;;5099101;28;20236;-79
2023/04/27 05:34:42;;;;;;;0.50;0.40;;;4.30;99.90;;;;;;5099543;28;20737;-79
2023/04/27 05:37:10;;;;;;;0.50;0.50;;;4.50;99.90;;;;;;5092643;28;20482;-80
2023/04/27 05:39:37;;;;;;;0.50;0.40;;;4.60;99.90;;;;;;5086302;28;20319;-79
2023/04/27 05:42:05;;;;;;;0.50;0.40;;;4.70;99.90;;;;;;5084031;28;20191;-80
2023/04/27 05:44:32;;;;;;;0.50;0.40;;;4.90;99.90;;;;;;5083670;28;20224;-80
2023/04/27 05:46:59;;;;;;;0.88;0.88;;;5.00;99.90;;;;;;5085472;28;20577;-78
2023/04/27 05:49:26;;;;;;;1.15;0.73;;;5.20;99.90;;;;;;5086763;28;20196;-81
2023/04/27 05:51:52;;;;;;;1.38;1.38;;;5.40;99.90;;;;;;5085452;28;20193;-80
2023/04/27 05:54:19;;;;;;;1.23;0.93;;;5.50;99.90;;;;;;5083295;28;20217;-80
2023/04/27 05:56:46;;;;;;;0.50;0.40;;;5.90;99.90;;;;;;5084634;28;20896;-80
2023/04/27 05:59:14;;;;;;;0.50;0.40;;;6.70;99.90;;;;;;5086471;28;20194;-80
2023/04/27 06:01:41;;;;;;;0.60;0.50;;;7.90;99.90;;;;;;5086946;28;20205;-80
2023/04/27 06:04:08;;;;;;;0.60;0.60;;;9.00;99.90;;;;;;5075436;28;20213;-79
2023/04/27 06:06:35;;;;;;;1.70;0.88;;;9.70;99.90;;;;;;5083355;28;20190;-80
2023/04/27 06:09:02;;;;;;;0.90;0.90;;;10.50;99.90;;;;;;5085321;28;20258;-79
2023/04/27 06:11:28;;;;;;;1.20;1.20;;;11.70;99.90;;;;;;5086236;28;20197;-80
2023/04/27 06:13:55;;;;;;;0.50;0.40;;;12.50;99.90;;;;;;5084666;28;20216;-78
2023/04/27 06:16:23;;;;;;;0.50;0.37;;;14.10;99.90;;;;;;5082045;28;20237;-79
2023/04/27 06:18:50;;;;;;;0.50;0.50;;;15.60;99.90;;;;;;5083618;28;20443;-81
2023/04/27 06:21:17;;;;;;;2.30;0.87;;;16.20;91.10;;;;;;5088971;28;20455;-80
2023/04/27 06:23:44;;;;;;;0.50;0.40;;;17.10;85.30;;;;;;5085790;28;21021;-81
2023/04/27 06:26:11;;;;;;;0.50;0.40;;;17.50;77.80;;;;;;5083046;28;20531;-81
2023/04/27 06:28:38;;;;;;;0.50;0.40;;;18.40;75.00;;;;;;5082917;28;20823;-79
2023/04/27 06:31:05;;;;;;;1.37;1.27;;;19.00;71.90;;;;;;5086433;28;20486;-81
2023/04/27 06:33:33;;;;;;;0.50;0.37;;;19.70;67.20;;;;;;5086387;28;20924;-80
2023/04/27 06:36:01;;;;;;;0.60;0.50;;;20.10;64.20;;;;;;5083803;28;20487;-80
2023/04/27 06:38:28;;;;;;;0.57;0.50;;;19.90;61.80;;;;;;5082903;28;20444;-76
2023/04/27 06:40:55;;;;;;;0.90;0.90;;;19.70;60.90;;;;;;5084577;28;20588;-83
2023/04/27 06:43:22;;;;;;;0.50;0.37;;;19.30;61.10;;;;;;5086253;28;20466;-78
2023/04/27 06:45:48;;;;;;;0.50;0.30;;;19.70;60.70;;;;;;5086231;28;20440;-81
2023/04/27 06:48:15;;;;;;;0.77;0.77;;;20.20;60.10;;;;;;5082855;28;20808;-79
2023/04/27 06:50:44;;;;;;;0.50;0.37;;;20.20;57.40;;;;;;5083295;28;20455;-80
2023/04/27 06:53:10;;;;;;;0.60;0.60;;;19.90;58.10;;;;;;5082691;28;20511;-80
2023/04/27 06:55:37;;;;;;;0.60;0.60;;;20.10;57.80;;;;;;5082592;28;20483;-81
2023/04/27 06:58:04;;;;;;;0.50;0.33;;;20.40;57.60;;;;;;5084934;28;20441;-81
2023/04/27 07:00:31;;;;;;;0.50;0.40;;;20.50;56.70;;;;;;5085666;28;20439;-77
2023/04/27 07:02:58;;;;;;;0.50;0.40;;;20.80;57.60;;;;;;5083745;28;20439;-81
2023/04/27 07:05:25;;;;;;;0.50;0.40;;;20.80;56.40;;;;;;5082740;28;20459;-77
2023/04/27 07:07:53;;;;;;;0.50;0.30;;;21.10;56.40;;;;;;5090993;28;20439;-81
2023/04/27 07:10:20;;;;;;;0.50;0.40;;;20.70;56.10;;;;;;5086966;28;20779;-81
2023/04/27 07:12:47;;;;;;;0.50;0.40;;;21.00;57.70;;;;;;5085017;28;20439;-79
2023/04/27 07:15:14;;;;;;;0.60;0.50;;;22.10;56.10;;;;;;5082024;28;20955;-80
2023/04/27 07:17:40;;;;;;;0.50;0.40;;;22.60;55.40;;;;;;5082544;28;20444;-81
2023/04/27 07:20:08;;;;;;;0.50;0.30;;;22.50;52.10;;;;;;5084761;28;20439;-81
2023/04/27 07:22:35;;;;;;;0.50;0.30;;;22.40;51.90;;;;;;5085622;28;20866;-78
2023/04/27 07:25:04;;;;;;;0.50;0.40;;;22.50;53.00;;;;;;5082793;28;21013;-79
2023/04/27 07:27:31;;;;;;;0.50;0.30;;;22.80;52.70;;;;;;5081863;28;20875;-81
2023/04/27 07:29:58;;;;;;;0.67;0.50;;;23.40;52.80;;;;;;5083724;28;20441;-80
2023/04/27 07:32:25;;;;;;;0.50;0.30;;;23.80;50.90;;;;;;5085467;28;20796;-80
2023/04/27 07:34:52;;;;;;;0.80;0.60;;;23.20;52.70;;;;;;5084400;28;20505;-81
2023/04/27 07:37:19;;;;;;;0.50;0.40;;;24.00;52.40;;;;;;5081381;28;20471;-81
2023/04/27 07:39:46;;;;;;;0.50;0.30;;;24.80;50.30;;;;;;5081383;28;20436;-81
2023/04/27 07:42:15;;;;;;;0.57;0.53;;;25.00;51.20;;;;;;5074255;28;20507;-80
2023/04/27 07:44:42;;;;;;;0.50;0.30;;;25.40;47.40;;;;;;5081281;28;20459;-80
2023/04/27 07:47:09;;;;;;;0.50;0.30;;;25.70;48.30;;;;;;5081997;28;20478;-78
2023/04/27 07:49:36;;;;;;;0.50;0.30;;;25.50;47.90;;;;;;5081920;28;20468;-80
2023/04/27 07:52:03;;;;;;;0.50;0.30;;;25.20;46.00;;;;;;5083966;28;20523;-80
2023/04/27 07:54:30;;;;;;;0.50;0.30;;;24.80;46.80;;;;;;5085474;28;20451;-80
2023/04/27 07:56:57;;;;;;;0.50;0.30;;;25.10;48.60;;;;;;5085532;28;20482;-80
2023/04/27 07:59:28;;;;;;;0.50;0.40;;;24.80;48.10;;;;;;5084196;28;21022;-80
2023/04/27 08:01:55;;;;;;;0.50;0.30;;;24.90;46.80;;;;;;5085517;28;20450;-80
2023/04/27 08:04:21;;;;;;;0.50;0.40;;;24.90;47.80;;;;;;5085884;28;20462;-80
2023/04/27 08:06:48;;;;;;;0.50;0.30;;;24.80;46.70;;;;;;5084508;28;20443;-80
2023/04/27 08:09:15;;;;;;;0.60;0.40;;;25.50;46.40;;;;;;5081568;28;20452;-81
2023/04/27 08:11:42;;;;;;;0.50;0.30;;;25.50;45.80;;;;;;5081843;28;20531;-79
2023/04/27 08:14:12;;;;;;;0.50;0.40;;;25.50;44.90;;;;;;5083957;28;21402;-80
2023/04/27 08:16:40;;;;;;;0.50;0.30;;;25.20;46.10;;;;;;5084549;28;20824;-80
2023/04/27 08:19:07;;;;;;;0.50;0.40;;;25.40;46.00;;;;;;5081958;28;20439;-81
2023/04/27 08:21:35;;;;;;;0.50;0.30;;;25.70;44.90;;;;;;5081921;28;20455;-77
2023/04/27 08:24:02;;;;;;;0.50;0.30;;;25.40;44.60;;;;;;5082813;28;20551;-81
2023/04/27 08:26:29;;;;;;;0.50;0.40;;;25.40;46.10;;;;;;5084522;28;20867;-80
2023/04/27 08:28:56;;;;;;;0.50;0.30;;;25.90;44.40;;;;;;5083837;28;20447;-80
2023/04/27 08:31:24;;;;;;;0.50;0.30;;;26.30;45.20;;;;;;5081719;28;20432;-77
2023/04/27 08:33:52;;;;;;;0.50;0.30;;;26.00;43.20;;;;;;5082976;28;20460;-78
2023/04/27 08:36:23;;;;;;;0.50;0.30;;;26.00;44.50;;;;;;5084517;28;20471;-79
2023/04/27 08:38:50;;;;;;;0.50;0.30;;;26.20;43.80;;;;;;5084001;28;20538;-80
2023/04/27 08:41:19;;;;;;;0.60;0.50;;;26.10;42.90;;;;;;5073075;28;20438;-80
2023/04/27 08:43:48;;;;;;;0.50;0.30;;;25.40;43.40;;;;;;5081308;28;20464;-80
2023/04/27 08:46:18;;;;;;;0.50;0.33;;;25.00;42.90;;;;;;5084455;28;20438;-79
2023/04/27 08:48:45;;;;;;;0.50;0.30;;;24.70;44.00;;;;;;5084767;28;20442;-79
2023/04/27 08:51:15;;;;;;;1.23;1.23;;;24.70;43.70;;;;;;5081618;28;20815;-80
2023/04/27 08:53:48;;;;;;;0.50;0.50;;;24.80;43.90;;;;;;5081006;28;20514;-80
2023/04/27 08:56:14;;;;;;;0.70;0.33;;;24.40;43.40;;;;;;5083801;28;20504;-80
2023/04/27 08:58:41;;;;;;;0.50;0.40;;;24.70;43.80;;;;;;5084518;28;20439;-80
2023/04/27 09:01:08;;;;;;;0.60;0.60;;;24.90;44.30;;;;;;5084223;28;20443;-80
2023/04/27 09:03:35;;;;;;;0.90;0.77;;;24.50;43.30;;;;;;5084077;28;20792;-79
2023/04/27 09:06:04;;;;;;;0.50;0.30;;;23.90;42.20;;;;;;5081066;28;20522;-80
2023/04/27 09:08:43;;;;;;;0.60;0.37;;;23.90;44.40;;;;;;5079567;28;20436;-77
2023/04/27 09:11:10;;;;;;;0.50;0.37;;;23.80;43.70;;;;;;5083918;28;20610;-79
2023/04/27 09:13:38;;;;;;;0.63;0.63;;;23.10;43.20;;;;;;5088406;28;21021;-80
2023/04/27 09:16:05;;;;;;;0.50;0.30;;;23.30;43.50;;;;;;5087373;28;20559;-81
2023/04/27 09:18:36;;;;;;;0.50;0.40;;;24.00;45.10;;;;;;5084113;28;20444;-78
2023/04/27 09:21:03;;;;;;;0.50;0.30;;;23.90;42.90;;;;;;5084044;28;20448;-79
2023/04/27 09:23:32;;;;;;;0.50;0.30;;;22.60;42.20;;;;;;5086825;28;20527;-79
2023/04/27 09:26:02;;;;;;;0.50;0.40;;;22.40;44.50;;;;;;5085971;28;20522;-80
2023/04/27 09:28:31;;;;;;;0.50;0.40;;;22.80;44.90;;;;;;5084139;28;20451;-81
2023/04/27 09:30:59;;;;;;;0.50;0.30;;;22.90;44.30;;;;;;5084006;28;20904;-80
2023/04/27 09:33:28;;;;;;;0.60;0.50;;;23.00;43.60;;;;;;5087049;28;20833;-80
2023/04/27 09:35:55;;;;;;;0.50;0.40;;;22.40;42.80;;;;;;5087454;28;20458;-78
2023/04/27 09:38:23;;;;;;;0.50;0.50;;;21.90;43.50;;;;;;5083909;28;20452;-80
2023/04/27 09:40:50;;;;;;;0.50;0.30;;;22.40;46.10;;;;;;5083741;28;20444;-80
2023/04/27 09:43:18;;;;;;;1.63;1.03;;;22.80;46.50;;;;;;5081187;28;20601;-79
2023/04/27 09:45:45;;;;;;;0.50;0.30;;;23.10;43.10;;;;;;5076268;28;20459;-80
2023/04/27 09:48:13;;;;;;;0.50;0.30;;;22.70;42.80;;;;;;5080124;28;20428;-82
2023/04/27 09:50:45;;;;;;;0.50;0.30;;;22.50;43.30;;;;;;5088212;28;20440;-83
2023/04/27 09:53:15;;;;;;;0.50;0.40;;;22.20;43.20;;;;;;5092642;28;20454;-81
2023/04/27 09:55:49;;;;;;;0.50;0.30;;;22.20;44.00;;;;;;5083778;28;20483;-83
2023/04/27 09:58:43;;;;;;;0.50;0.40;;;21.80;43.90;;;;;;5084146;28;20436;-80
2023/04/27 10:01:17;;;;;;;0.50;0.40;;;21.30;45.10;;;;;;5085889;28;20446;-82
2023/04/27 10:04:02;;;;;;;0.50;0.40;;;21.60;44.20;;;;;;5088263;28;20471;-83
2023/04/27 10:06:57;;;;;;;0.50;0.30;;;21.70;44.00;;;;;;5073796;28;20435;-81
2023/04/27 10:09:24;;;;;;;0.50;0.30;;;21.80;44.40;;;;;;5072868;28;20443;-81
2023/04/27 10:11:52;;;;;;;0.50;0.30;;;21.70;44.50;;;;;;5097231;28;20444;-81
2023/04/27 10:14:22;;;;;;;0.67;0.67;;;22.00;46.50;;;;;;5084269;28;20466;-82
2023/04/27 10:16:52;;;;;;;0.50;0.30;;;22.10;44.00;;;;;;5092222;28;20562;-82
2023/04/27 10:19:19;;;;;;;0.93;0.60;;;22.00;44.00;;;;;;5084411;28;20436;-84
2023/04/27 10:21:55;;;;;;;0.50;0.40;;;22.50;44.70;;;;;;5083733;28;20824;-83
2023/04/27 10:24:34;;;;;;;0.73;0.73;;;23.40;44.60;;;;;;5084237;28;20464;-83
2023/04/27 10:27:04;;;;;;;0.50;0.37;;;24.40;44.90;;;;;;5084950;28;20471;-82
2023/04/27 10:29:38;;;;;;;0.57;0.53;;;24.30;41.60;;;;;;5087368;28;20523;-81
2023/04/27 10:32:10;;;;;;;0.50;0.30;;;23.90;42.30;;;;;;5087173;28;20442;-84
2023/04/27 10:34:37;;;;;;;0.50;0.30;;;23.70;42.30;;;;;;5091543;28;20459;-83
2023/04/27 10:37:09;;;;;;;0.50;0.30;;;23.90;43.50;;;;;;5093254;28;20499;-81
2023/04/27 10:39:38;;;;;;;0.50;0.30;;;24.20;43.70;;;;;;5101642;28;20526;-82
2023/04/27 10:42:05;;;;;;;0.50;0.40;;;24.20;41.40;;;;;;5095329;28;20440;-82
2023/04/27 10:44:33;;;;;;;0.50;0.40;;;23.40;41.80;;;;;;5087911;28;20465;-82
2023/04/27 10:47:12;;;;;;;0.50;0.37;;;22.80;42.00;;;;;;5086153;28;20445;-81
2023/04/27 10:49:39;;;;;;;0.90;0.50;;;22.70;44.60;;;;;;5083177;28;20450;-82
2023/04/27 10:52:06;;;;;;;0.50;0.30;;;22.40;44.00;;;;;;5083296;28;20442;-81
2023/04/27 10:54:33;;;;;;;0.80;0.60;;;22.20;42.80;;;;;;5086800;28;20486;-81
2023/04/27 10:57:05;;;;;;;0.63;0.50;;;22.30;44.00;;;;;;5085931;28;20486;-82
2023/04/27 10:59:33;;;;;;;0.60;0.53;;;22.60;43.50;;;;;;5082938;28;20524;-79
2023/04/27 11:02:01;;;;;;;0.60;0.50;;;22.80;42.20;;;;;;5083655;28;20469;-80
2023/04/27 11:04:39;;;;;;;0.80;0.60;;;22.80;43.70;;;;;;5086603;28;20550;-83
2023/04/27 11:07:07;;;;;;;0.50;0.40;;;21.70;40.10;;;;;;5085922;28;20443;-81
2023/04/27 11:09:35;;;;;;;0.50;0.30;;;21.50;42.40;;;;;;5082802;28;20484;-83
2023/04/27 11:12:02;;;;;;;0.50;0.40;;;21.50;42.20;;;;;;5083140;28;20444;-81
2023/04/27 11:14:29;;;;;;;0.50;0.40;;;21.80;44.20;;;;;;5082716;28;20466;-83
2023/04/27 11:16:56;;;;;;;0.50;0.40;;;22.00;42.90;;;;;;5082812;28;20475;-82
2023/04/27 11:19:24;;;;;;;0.50;0.30;;;22.40;42.90;;;;;;5084811;28;20442;-82
2023/04/27 11:21:51;;;;;;;0.50;0.30;;;23.10;43.80;;;;;;5086362;28;20440;-82
2023/04/27 11:24:18;;;;;;;2.00;1.90;;;23.40;41.00;;;;;;5083267;28;20466;-82
2023/04/27 11:26:52;;;;;;;0.83;0.83;;;24.00;42.40;;;;;;5082490;28;20815;-83
2023/04/27 11:29:18;;;;;;;0.90;0.70;;;24.20;42.20;;;;;;5084878;28;20444;-82
2023/04/27 11:31:47;;;;;;;0.50;0.30;;;24.70;41.10;;;;;;5085720;28;20439;-81
2023/04/27 11:34:18;;;;;;;0.50;0.40;;;24.60;39.50;;;;;;5074814;28;20970;-81
2023/04/27 11:36:56;;;;;;;0.50;0.30;;;24.50;40.60;;;;;;5088793;28;20558;-81
2023/04/27 11:39:23;;;;;;;0.50;0.30;;;25.00;42.30;;;;;;5082458;28;20523;-82
2023/04/27 11:41:50;;;;;;;0.50;0.40;;;25.00;39.80;;;;;;5084345;28;20504;-82
2023/04/27 11:44:17;;;;;;;0.70;0.50;;;24.60;38.60;;;;;;5084321;28;20468;-81
2023/04/27 11:46:46;;;;;;;0.50;0.30;;;24.70;39.80;;;;;;5085954;28;20439;-83
2023/04/27 11:49:14;;;;;;;0.50;0.40;;;24.80;39.90;;;;;;5076601;28;20444;-81
2023/04/27 11:51:43;;;;;;;4.93;0.80;;;25.00;41.30;;;;;;5081978;28;20966;-83
2023/04/27 11:54:12;;;;;;;1.33;0.70;;;25.70;42.50;;;;;;5084443;28;20474;-80
2023/04/27 11:56:41;;;;;;;0.50;0.30;;;25.20;38.40;;;;;;5086330;28;20477;-83
2023/04/27 11:59:19;;;;;;;0.50;0.30;;;25.60;41.60;;;;;;5086073;28;20435;-80
2023/04/27 12:01:46;;;;;;;0.60;0.40;;;26.10;40.80;;;;;;5083402;28;20985;-82
2023/04/27 12:04:13;;;;;;;0.50;0.40;;;26.30;39.50;;;;;;5084645;28;20459;-83
2023/04/27 12:06:40;;;;;;;1.10;0.73;;;26.60;38.00;;;;;;5086492;28;20530;-81
2023/04/27 12:09:06;;;;;;;0.50;0.40;;;26.30;37.00;;;;;;5087253;28;20512;-81
2023/04/27 12:11:35;;;;;;;0.50;0.30;;;25.60;37.60;;;;;;5086259;28;20436;-79
2023/04/27 12:14:02;;;;;;;0.50;0.30;;;25.60;38.10;;;;;;5087314;28;20482;-80
2023/04/27 12:16:30;;;;;;;0.50;0.40;;;25.60;39.30;;;;;;5078940;28;20444;-80
2023/04/27 12:18:56;;;;;;;0.50;0.30;;;25.90;40.90;;;;;;5086942;28;20476;-80
2023/04/27 12:21:23;;;;;;;0.80;0.80;;;26.30;41.60;;;;;;5084672;28;22768;-83
2023/04/27 12:23:50;;;;;;;0.60;0.50;;;26.80;40.40;;;;;;5080127;28;20467;-80
2023/04/27 12:26:17;;;;;;;0.50;0.40;;;27.50;39.10;;;;;;5082719;28;20449;-80
2023/04/27 12:28:45;;;;;;;0.77;0.77;;;27.40;39.10;;;;;;5088247;28;20550;-82
2023/04/27 12:31:15;;;;;;;0.50;0.30;;;27.10;38.30;;;;;;5084849;28;20515;-80
2023/04/27 12:33:42;;;;;;;0.60;0.50;;;27.50;38.80;;;;;;5081925;28;20474;-81
2023/04/27 12:36:09;;;;;;;0.50;0.30;;;27.80;39.40;;;;;;5086809;28;20438;-82
2023/04/27 12:38:36;;;;;;;0.63;0.63;;;27.40;37.30;;;;;;5083306;28;20468;-80
2023/04/27 12:41:03;;;;;;;0.50;0.30;;;26.90;38.90;;;;;;5093190;28;20440;-80
2023/04/27 12:43:29;;;;;;;0.50;0.40;;;26.70;38.00;;;;;;5079246;28;20504;-80
2023/04/27 12:45:58;;;;;;;1.00;0.77;;;26.20;37.40;;;;;;5089277;28;20461;-82
2023/04/27 12:48:25;;;;;;;0.50;0.30;;;23.40;37.80;;;;;;5087442;28;20439;-83
2023/04/27 12:50:52;;;;;;;0.50;0.50;;;22.10;39.20;;;;;;5086184;28;20988;-82
2023/04/27 12:53:20;;;;;;;0.50;0.40;;;22.40;41.10;;;;;;5088336;28;20535;-81
2023/04/27 12:55:47;;;;;;;0.50;0.40;;;22.50;40.00;;;;;;5093301;28;20470;-79